Hovedside
METAR-TAF:

METAR-TAF

Lufthavner :

Karup lufthavn

Karup, Danmark

breddegrad: 56-18N, lengdegrad: 009-07E, høyde over havet: 52 m

Gjeldene værobservasjon

Denne rapporten ble laget for 14 minutter siden, klokken 01:20 UTC
Vind 8 kt fra Nord-nordvest, skiftende mellom Vest og Nord
Temperatur 4°C
Luftfuktighet 70%
Trykk 1013 hPa
Sikt 10 km eller mer

METAR: EKKA 110120Z AUTO 34008KT 280V350 9999NDV NCD 04/M01 Q1013

Tid: 02:34 (01:34 UTC)

Varsel

Denne rapporten ble laget for 2 timer og 27 minutter siden, klokken 23:07 UTC
Varsel gyldig fra 11. klokken 00 UTC til 11. klokken 24 UTC
Vind 10 kt fra Nordvest
Sikt 10 km eller mer
Få skyer i en høyde av 2500 ft
Blir
fra 11. klokken 09 UTC til 11. klokken 12 UTC
Vind 8 kt fra Nord

TAF: EKKA 102307Z 1100/1124 32010KT 9999 FEW025 BECMG 1109/1112 01008KT

Værobservasjoner og værvarsel for over 4000 flyplasser (METAR- og TAF-rapporter).

Tilgjengelige stasjoner er representert av de røde og gule prikkene på kartet.

Hold musepekeren over prikken for å se navnet på stasjonen.

Klikk så for å se værobservasjoner og -varsler.

For å forandre kartet kan du klikke på den grønne knappen med svart kryss for å zoome inn, på den grønne knappen med strek for å zoome ut, eller på de grønne pilene for å se tilstøtende kart.


METAR-TAF: